Muzuni — 9HB3193 — position and weather

sailwx.info

Track history (hours):
 
Tides and Currents Weather Stations Pressure Air Temp Water Temp Dewpoint Dewpoint Depression Visibility Wind Speed Wind Dir Waves Ship Positions

Muzuni

Last reported at 2018-Jul-01 07:19 UTC. Time now 2018-Jul-17 15:02 UTC.
Position N 38°50' E 001°26'.
Warning: this ship's position is 16 days out of date.

Length 28 m.

Type: Sailing vessel. MMSI: 249000926.

Date/timePositionNaut miles runAvg speedWind from/ knotsBaromVisibWave heightAir tempDewpointWater temp
2018-Jul-01 07:19N 38°50' E 001°26'3 8.4
2018-Jul-01 07:00N 38°53' E 001°28'59 8.8
2018-Jul-01 00:21N 39°26' E 002°30'3 8.6
2018-Jun-30 23:58N 39°28' E 002°33'4 8.7
2018-Jun-30 23:30N 39°31' E 002°37'3 5.4
2018-Jun-30 23:00N 39°34' E 002°38'0 0.8
2018-Jun-30 22:29N 39°34' E 002°38'0 0.0
2018-Jun-30 21:59N 39°34' E 002°38'0 0.0
2018-Jun-30 21:29N 39°34' E 002°38'0 0.0
2018-Jun-30 20:59N 39°34' E 002°38'0 0.0
2018-Jun-30 20:29N 39°34' E 002°38'0 0.0
2018-Jun-30 19:59N 39°34' E 002°38'0 0.0
2018-Jun-30 19:29N 39°34' E 002°38'0 0.0
2018-Jun-30 18:59N 39°34' E 002°38'0 0.0
2018-Jun-30 18:29N 39°34' E 002°38'0 0.0
2018-Jun-30 17:59N 39°34' E 002°38'0 0.0
2018-Jun-30 17:30N 39°34' E 002°38'0 0.1
2018-Jun-30 16:59N 39°34' E 002°38'0 0.0
2018-Jun-30 16:29N 39°34' E 002°38'0 0.0
2018-Jun-30 15:59N 39°34' E 002°38'0 0.0
2018-Jun-30 15:29N 39°34' E 002°38'0 0.0
2018-Jun-30 14:59N 39°34' E 002°38'0 0.0
2018-Jun-30 14:29N 39°34' E 002°38'0 0.0
2018-Jun-30 13:56N 39°34' E 002°38'0 0.0
2018-Jun-30 13:29N 39°34' E 002°38'0 0.0
2018-Jun-30 12:59N 39°34' E 002°38'0 0.0
2018-Jun-30 12:29N 39°34' E 002°38'0 0.0
2018-Jun-30 11:59N 39°34' E 002°38'0 0.0
2018-Jun-30 11:29N 39°34' E 002°38'0 0.0
2018-Jun-30 10:59N 39°34' E 002°38'0 0.0
2018-Jun-30 10:29N 39°34' E 002°38'0 0.0
2018-Jun-30 09:59N 39°34' E 002°38'0 0.0
2018-Jun-30 09:29N 39°34' E 002°38'0 0.0
2018-Jun-30 08:59N 39°34' E 002°38'0 0.0
2018-Jun-30 08:29N 39°34' E 002°38'0 0.0
2018-Jun-30 07:59N 39°34' E 002°38'0 0.0
2018-Jun-30 07:29N 39°34' E 002°38'0 0.0
2018-Jun-30 06:59N 39°34' E 002°38'0 0.0
2018-Jun-30 06:29N 39°34' E 002°38'0 0.0
2018-Jun-30 05:59N 39°34' E 002°38'0 0.0
2018-Jun-30 05:29N 39°34' E 002°38'0 0.0
2018-Jun-30 04:59N 39°34' E 002°38'0 0.0
2018-Jun-30 04:29N 39°34' E 002°38'0 0.0
2018-Jun-30 03:59N 39°34' E 002°38'0 0.0
2018-Jun-30 03:29N 39°34' E 002°38'0 0.0
2018-Jun-30 02:59N 39°34' E 002°38'0 0.0
2018-Jun-30 02:29N 39°34' E 002°38'0 0.0
2018-Jun-30 01:59N 39°34' E 002°38'0 0.0
2018-Jun-30 01:29N 39°34' E 002°38'0 0.0
2018-Jun-30 00:59N 39°34' E 002°38'0 0.0
2018-Jun-30 00:29N 39°34' E 002°38'0 0.0
2018-Jun-29 23:59N 39°34' E 002°38'0 0.0
2018-Jun-29 23:29N 39°34' E 002°38'0 0.0
2018-Jun-29 22:50N 39°34' E 002°38'0 0.0
2018-Jun-29 22:29N 39°34' E 002°38'0 0.0
2018-Jun-29 21:59N 39°34' E 002°38'0 0.0
2018-Jun-29 21:29N 39°34' E 002°38'0 0.0
2018-Jun-29 20:59N 39°34' E 002°38'0 0.0
2018-Jun-29 20:26N 39°34' E 002°38'0 0.0
2018-Jun-29 19:59N 39°34' E 002°38'0 0.0
2018-Jun-29 19:26N 39°34' E 002°38'0 0.0
2018-Jun-29 18:59N 39°34' E 002°38'0 0.0
2018-Jun-29 18:29N 39°34' E 002°38'0 0.0
2018-Jun-29 17:56N 39°34' E 002°38'0 0.0
2018-Jun-29 17:29N 39°34' E 002°38'0 0.0
2018-Jun-29 16:59N 39°34' E 002°38'0 0.0
2018-Jun-29 16:29N 39°34' E 002°38'0 0.0
2018-Jun-29 15:59N 39°34' E 002°38'0 0.0
2018-Jun-29 15:29N 39°34' E 002°38'0 0.0
2018-Jun-29 14:59N 39°34' E 002°38'0 0.0
2018-Jun-29 14:29N 39°34' E 002°38'0 0.0
2018-Jun-29 13:59N 39°34' E 002°38'0 0.0
2018-Jun-29 13:29N 39°34' E 002°38'0 0.0
2018-Jun-29 12:59N 39°34' E 002°38'0 0.0
2018-Jun-29 12:29N 39°34' E 002°38'0 0.0
2018-Jun-29 11:59N 39°34' E 002°38'0 0.0
2018-Jun-29 11:29N 39°34' E 002°38'0 0.0
2018-Jun-29 10:59N 39°34' E 002°38'0 0.0
2018-Jun-29 10:29N 39°34' E 002°38'0 0.0
2018-Jun-29 09:59N 39°34' E 002°38'0 0.0
2018-Jun-29 09:29N 39°34' E 002°38'0 0.0
2018-Jun-29 08:59N 39°34' E 002°38'0 0.0
2018-Jun-29 08:29N 39°34' E 002°38'0 0.0
2018-Jun-29 07:59N 39°34' E 002°38'0 0.0
2018-Jun-29 07:29N 39°34' E 002°38'0 0.0
2018-Jun-29 06:59N 39°34' E 002°38'0 0.0
2018-Jun-29 06:29N 39°34' E 002°38'0 0.0
2018-Jun-29 05:59N 39°34' E 002°38'0 0.0
2018-Jun-29 05:29N 39°34' E 002°38'0 0.0
2018-Jun-29 04:59N 39°34' E 002°38'0 0.0
2018-Jun-29 04:29N 39°34' E 002°38'0 0.0
2018-Jun-29 03:59N 39°34' E 002°38'0 0.0
2018-Jun-29 03:29N 39°34' E 002°38'0 0.0
2018-Jun-29 02:59N 39°34' E 002°38'0 0.0
2018-Jun-29 02:29N 39°34' E 002°38'0 0.0
2018-Jun-29 01:59N 39°34' E 002°38'0 0.0
2018-Jun-29 01:29N 39°34' E 002°38'0 0.0
2018-Jun-29 00:59N 39°34' E 002°38'0 0.0
2018-Jun-29 00:29N 39°34' E 002°38'0 0.0
2018-Jun-28 23:59N 39°34' E 002°38'0 0.0
2018-Jun-28 23:29N 39°34' E 002°38'0 0.0
2018-Jun-28 22:59N 39°34' E 002°38'0 0.0
2018-Jun-28 22:29N 39°34' E 002°38'0 0.0
2018-Jun-28 21:59N 39°34' E 002°38'0 0.0
2018-Jun-28 21:29N 39°34' E 002°38'0 0.0
2018-Jun-28 20:59N 39°34' E 002°38'0 0.0
2018-Jun-28 20:26N 39°34' E 002°38'0 0.0
2018-Jun-28 19:59N 39°34' E 002°38'0 0.0
2018-Jun-28 19:29N 39°34' E 002°38'0 0.0
2018-Jun-28 18:59N 39°34' E 002°38'0 0.0
2018-Jun-28 18:29N 39°34' E 002°38'0 0.0
2018-Jun-28 17:59N 39°34' E 002°38'0 0.0
2018-Jun-28 17:29N 39°34' E 002°38'0 0.0
2018-Jun-28 16:59N 39°34' E 002°38'0 0.0
2018-Jun-28 16:29N 39°34' E 002°38'0 0.0
2018-Jun-28 15:59N 39°34' E 002°38'0 0.0
2018-Jun-28 15:29N 39°34' E 002°38'0 0.0
2018-Jun-28 14:59N 39°34' E 002°38'0 0.0
2018-Jun-28 14:29N 39°34' E 002°38'0 0.0
2018-Jun-28 13:56N 39°34' E 002°38'0 0.0
2018-Jun-28 13:29N 39°34' E 002°38'0 0.0
2018-Jun-28 12:59N 39°34' E 002°38'0 0.0
2018-Jun-28 11:47N 39°34' E 002°38'0 0.0
2018-Jun-28 11:29N 39°34' E 002°38'0 0.0
2018-Jun-28 10:59N 39°34' E 002°38'0 0.0
2018-Jun-28 10:29N 39°34' E 002°38'0 0.0
2018-Jun-28 09:59N 39°34' E 002°38'0 0.0
2018-Jun-28 09:29N 39°34' E 002°38'0 0.0
2018-Jun-28 08:59N 39°34' E 002°38'0 0.0
2018-Jun-28 08:29N 39°34' E 002°38'0 0.0
2018-Jun-28 07:59N 39°34' E 002°38'0 0.0
2018-Jun-28 07:29N 39°34' E 002°38'0 0.0
2018-Jun-28 06:59N 39°34' E 002°38'0 0.0
2018-Jun-28 06:29N 39°34' E 002°38'0 0.0
2018-Jun-28 05:59N 39°34' E 002°38'0 0.0
2018-Jun-28 05:29N 39°34' E 002°38'0 0.0
2018-Jun-28 04:59N 39°34' E 002°38'0 0.0
2018-Jun-28 04:29N 39°34' E 002°38'0 0.0
2018-Jun-28 03:59N 39°34' E 002°38'0 0.0
2018-Jun-28 03:29N 39°34' E 002°38'0 0.0
2018-Jun-28 02:59N 39°34' E 002°38'0 0.0
2018-Jun-28 02:29N 39°34' E 002°38'0 0.0
2018-Jun-28 01:59N 39°34' E 002°38'0 0.0
2018-Jun-28 01:29N 39°34' E 002°38'0 0.0
2018-Jun-28 00:59N 39°34' E 002°38'0 0.0
2018-Jun-28 00:29N 39°34' E 002°38'0 0.0
2018-Jun-27 23:59N 39°34' E 002°38'0 0.0
2018-Jun-27 23:29N 39°34' E 002°38'0 0.0
2018-Jun-27 22:59N 39°34' E 002°38'0 0.0
2018-Jun-27 22:29N 39°34' E 002°38'0 0.0
2018-Jun-27 21:59N 39°34' E 002°38'0 0.0
2018-Jun-27 21:29N 39°34' E 002°38'0 0.0
2018-Jun-27 20:59N 39°34' E 002°38'0 0.0
2018-Jun-27 20:29N 39°34' E 002°38'0 0.0
2018-Jun-27 19:59N 39°34' E 002°38'0 0.0
2018-Jun-27 19:29N 39°34' E 002°38'0 0.0
2018-Jun-27 18:59N 39°34' E 002°38'0 0.0
2018-Jun-27 18:29N 39°34' E 002°38'0 0.0
2018-Jun-27 17:56N 39°34' E 002°38'0 0.0
2018-Jun-27 17:29N 39°34' E 002°38'0 0.0
2018-Jun-27 16:59N 39°34' E 002°38'0 0.0
2018-Jun-27 16:29N 39°34' E 002°38'0 0.0
2018-Jun-27 15:59N 39°34' E 002°38'0 0.0
2018-Jun-27 15:29N 39°34' E 002°38'0 0.0
2018-Jun-27 14:59N 39°34' E 002°38'0 0.0
2018-Jun-27 14:29N 39°34' E 002°38'0 0.0
2018-Jun-27 13:59N 39°34' E 002°38'0 0.0
2018-Jun-27 13:29N 39°34' E 002°38'0 0.0
2018-Jun-27 12:59N 39°34' E 002°38'0 0.0
2018-Jun-27 12:29N 39°34' E 002°38'0 0.0
2018-Jun-27 11:59N 39°34' E 002°38'0 0.0
2018-Jun-27 11:29N 39°34' E 002°38'0 0.0
2018-Jun-27 10:59N 39°34' E 002°38'0 0.0
2018-Jun-27 10:17N 39°34' E 002°38'0 0.0
2018-Jun-27 09:59N 39°34' E 002°38'0 0.0
2018-Jun-27 09:29N 39°34' E 002°38'0 0.0
2018-Jun-27 08:59N 39°34' E 002°38'0 0.0
2018-Jun-27 08:29N 39°34' E 002°38'0 0.0
2018-Jun-27 07:59N 39°34' E 002°38'0 0.0
2018-Jun-27 07:29N 39°34' E 002°38'0 0.0
2018-Jun-27 06:56N 39°34' E 002°38'0 0.0
2018-Jun-27 06:29N 39°34' E 002°38'0 0.0
2018-Jun-27 05:59N 39°34' E 002°38'0 0.0
2018-Jun-27 05:29N 39°34' E 002°38'0 0.0
2018-Jun-27 04:59N 39°34' E 002°38'0 0.0
2018-Jun-27 04:29N 39°34' E 002°38'0 0.0
2018-Jun-27 03:59N 39°34' E 002°38'0 0.0
2018-Jun-27 03:29N 39°34' E 002°38'0 0.0
2018-Jun-27 02:59N 39°34' E 002°38'0 0.0
2018-Jun-27 02:29N 39°34' E 002°38'0 0.0
2018-Jun-27 01:59N 39°34' E 002°38'0 0.0
2018-Jun-27 01:29N 39°34' E 002°38'0 0.0
2018-Jun-27 00:59N 39°34' E 002°38'0 0.0
2018-Jun-27 00:29N 39°34' E 002°38'0 0.0
2018-Jun-26 23:59N 39°34' E 002°38'0 0.0
2018-Jun-26 23:29N 39°34' E 002°38'0 0.0
2018-Jun-26 22:59N 39°34' E 002°38'0 0.0
2018-Jun-26 22:29N 39°34' E 002°38'0 0.0
2018-Jun-26 21:59N 39°34' E 002°38'0 0.0
2018-Jun-26 21:26N 39°34' E 002°38'0 0.0
2018-Jun-26 20:59N 39°34' E 002°38'0 0.0
2018-Jun-26 20:29N 39°34' E 002°38'0 0.0
2018-Jun-26 19:59N 39°34' E 002°38'0 0.0
2018-Jun-26 19:29N 39°34' E 002°38'0 0.0
2018-Jun-26 18:59N 39°34' E 002°38'0 0.0
2018-Jun-26 18:29N 39°34' E 002°38'0 0.0
2018-Jun-26 17:59N 39°34' E 002°38'0 0.0
2018-Jun-26 17:29N 39°34' E 002°38'0 0.0
2018-Jun-26 16:29N 39°34' E 002°38'0 0.0
2018-Jun-26 15:59N 39°34' E 002°38'0 0.0
2018-Jun-26 15:26N 39°34' E 002°38'0 0.0
2018-Jun-26 14:59N 39°34' E 002°38'0 0.0
2018-Jun-26 14:29N 39°34' E 002°38'0 0.0
2018-Jun-26 13:53N 39°34' E 002°38'0 0.0
2018-Jun-26 13:29N 39°34' E 002°38'0 0.0
2018-Jun-26 12:59N 39°34' E 002°38'0 0.0
2018-Jun-26 12:29N 39°34' E 002°38'0 0.0
2018-Jun-26 11:59N 39°34' E 002°38'0 0.0
2018-Jun-26 11:29N 39°34' E 002°38'0 0.0
2018-Jun-26 10:59N 39°34' E 002°38'0 0.0
2018-Jun-26 10:29N 39°34' E 002°38'0 0.0
2018-Jun-26 09:59N 39°34' E 002°38'0 0.0
2018-Jun-26 09:29N 39°34' E 002°38'0 0.0
2018-Jun-26 08:59N 39°34' E 002°38'0 0.0
2018-Jun-26 08:29N 39°34' E 002°38'0 0.0
2018-Jun-26 07:59N 39°34' E 002°38'0 0.0
2018-Jun-26 07:23N 39°34' E 002°38'0 0.0
2018-Jun-26 06:57N 39°34' E 002°38'0 0.0
2018-Jun-26 06:29N 39°34' E 002°38'0 0.0
2018-Jun-26 05:59N 39°34' E 002°38'0 0.0
2018-Jun-26 05:29N 39°34' E 002°38'0 0.0
2018-Jun-26 04:59N 39°34' E 002°38'0 0.0
2018-Jun-26 04:29N 39°34' E 002°38'0 0.0
2018-Jun-26 03:59N 39°34' E 002°38'0 0.0
2018-Jun-26 03:29N 39°34' E 002°38'0 0.0
2018-Jun-26 02:59N 39°34' E 002°38'0 0.0
2018-Jun-26 02:29N 39°34' E 002°38'0 0.0
2018-Jun-26 01:59N 39°34' E 002°38'0 0.0
2018-Jun-26 01:29N 39°34' E 002°38'0 0.0
2018-Jun-26 00:59N 39°34' E 002°38'0 0.0
2018-Jun-26 00:29N 39°34' E 002°38'0 0.0
2018-Jun-25 23:59N 39°34' E 002°38'0 0.0
2018-Jun-25 23:29N 39°34' E 002°38'0 0.0
2018-Jun-25 22:59N 39°34' E 002°38'0 0.0
2018-Jun-25 22:29N 39°34' E 002°38'0 0.0
2018-Jun-25 22:00N 39°34' E 002°38'0 0.0
2018-Jun-25 21:29N 39°34' E 002°38'0 0.0
2018-Jun-25 20:59N 39°34' E 002°38'0 0.0
2018-Jun-25 20:29N 39°34' E 002°38'0 0.0
2018-Jun-25 19:59N 39°34' E 002°38'0 0.0
2018-Jun-25 19:29N 39°34' E 002°38'0 0.0
2018-Jun-25 18:59N 39°34' E 002°38'0 0.0
2018-Jun-25 18:26N 39°34' E 002°38'0 0.0
2018-Jun-25 17:59N 39°34' E 002°38'0 0.0
2018-Jun-25 17:29N 39°34' E 002°38'0 0.0
2018-Jun-25 16:59N 39°34' E 002°38'0 0.0
2018-Jun-25 16:29N 39°34' E 002°38'0 0.0
2018-Jun-25 15:59N 39°34' E 002°38'0 0.0
2018-Jun-25 15:30N 39°34' E 002°38'0 0.0
2018-Jun-25 15:00N 39°34' E 002°38'0 0.0
2018-Jun-25 14:30N 39°34' E 002°38'0 0.0
2018-Jun-25 14:00N 39°34' E 002°38'0 0.0
2018-Jun-25 13:30N 39°34' E 002°38'0 0.0
2018-Jun-25 13:00N 39°34' E 002°38'0 0.9
2018-Jun-25 12:29N 39°33' E 002°38'4 7.9
2018-Jun-25 11:59N 39°30' E 002°35'  
Track history (hours):
 
Tides and Currents Weather Stations Pressure Air Temp Water Temp Dewpoint Dewpoint Depression Visibility Wind Speed Wind Dir Waves Ship Positions

Muzuni

Last reported at 2018-Jul-01 07:19 UTC. Time now 2018-Jul-17 15:02 UTC.
Position N 38°50' E 001°26'.
Warning: this ship's position is 16 days out of date.

Length 28 m.

Type: Sailing vessel. MMSI: 249000926.

Date/timePositionNaut miles runAvg speedWind from/ knotsBaromVisibWave heightAir tempDewpointWater temp
2018-Jul-01 07:19N 38°50' E 001°26'3 8.4
2018-Jul-01 07:00N 38°53' E 001°28'59 8.8
2018-Jul-01 00:21N 39°26' E 002°30'3 8.6
2018-Jun-30 23:58N 39°28' E 002°33'4 8.7
2018-Jun-30 23:30N 39°31' E 002°37'3 5.4
2018-Jun-30 23:00N 39°34' E 002°38'0 0.8
2018-Jun-30 22:29N 39°34' E 002°38'0 0.0
2018-Jun-30 21:59N 39°34' E 002°38'0 0.0
2018-Jun-30 21:29N 39°34' E 002°38'0 0.0
2018-Jun-30 20:59N 39°34' E 002°38'0 0.0
2018-Jun-30 20:29N 39°34' E 002°38'0 0.0
2018-Jun-30 19:59N 39°34' E 002°38'0 0.0
2018-Jun-30 19:29N 39°34' E 002°38'0 0.0
2018-Jun-30 18:59N 39°34' E 002°38'0 0.0
2018-Jun-30 18:29N 39°34' E 002°38'0 0.0
2018-Jun-30 17:59N 39°34' E 002°38'0 0.0
2018-Jun-30 17:30N 39°34' E 002°38'0 0.1
2018-Jun-30 16:59N 39°34' E 002°38'0 0.0
2018-Jun-30 16:29N 39°34' E 002°38'0 0.0
2018-Jun-30 15:59N 39°34' E 002°38'0 0.0
2018-Jun-30 15:29N 39°34' E 002°38'0 0.0
2018-Jun-30 14:59N 39°34' E 002°38'0 0.0
2018-Jun-30 14:29N 39°34' E 002°38'0 0.0
2018-Jun-30 13:56N 39°34' E 002°38'0 0.0
2018-Jun-30 13:29N 39°34' E 002°38'0 0.0
2018-Jun-30 12:59N 39°34' E 002°38'0 0.0
2018-Jun-30 12:29N 39°34' E 002°38'0 0.0
2018-Jun-30 11:59N 39°34' E 002°38'0 0.0
2018-Jun-30 11:29N 39°34' E 002°38'0 0.0
2018-Jun-30 10:59N 39°34' E 002°38'0 0.0
2018-Jun-30 10:29N 39°34' E 002°38'0 0.0
2018-Jun-30 09:59N 39°34' E 002°38'0 0.0
2018-Jun-30 09:29N 39°34' E 002°38'0 0.0
2018-Jun-30 08:59N 39°34' E 002°38'0 0.0
2018-Jun-30 08:29N 39°34' E 002°38'0 0.0
2018-Jun-30 07:59N 39°34' E 002°38'0 0.0
2018-Jun-30 07:29N 39°34' E 002°38'0 0.0
2018-Jun-30 06:59N 39°34' E 002°38'0 0.0
2018-Jun-30 06:29N 39°34' E 002°38'0 0.0
2018-Jun-30 05:59N 39°34' E 002°38'0 0.0
2018-Jun-30 05:29N 39°34' E 002°38'0 0.0
2018-Jun-30 04:59N 39°34' E 002°38'0 0.0
2018-Jun-30 04:29N 39°34' E 002°38'0 0.0
2018-Jun-30 03:59N 39°34' E 002°38'0 0.0
2018-Jun-30 03:29N 39°34' E 002°38'0 0.0
2018-Jun-30 02:59N 39°34' E 002°38'0 0.0
2018-Jun-30 02:29N 39°34' E 002°38'0 0.0
2018-Jun-30 01:59N 39°34' E 002°38'0 0.0
2018-Jun-30 01:29N 39°34' E 002°38'0 0.0
2018-Jun-30 00:59N 39°34' E 002°38'0 0.0
2018-Jun-30 00:29N 39°34' E 002°38'0 0.0
2018-Jun-29 23:59N 39°34' E 002°38'0 0.0
2018-Jun-29 23:29N 39°34' E 002°38'0 0.0
2018-Jun-29 22:50N 39°34' E 002°38'0 0.0
2018-Jun-29 22:29N 39°34' E 002°38'0 0.0
2018-Jun-29 21:59N 39°34' E 002°38'0 0.0
2018-Jun-29 21:29N 39°34' E 002°38'0 0.0
2018-Jun-29 20:59N 39°34' E 002°38'0 0.0
2018-Jun-29 20:26N 39°34' E 002°38'0 0.0
2018-Jun-29 19:59N 39°34' E 002°38'0 0.0
2018-Jun-29 19:26N 39°34' E 002°38'0 0.0
2018-Jun-29 18:59N 39°34' E 002°38'0 0.0
2018-Jun-29 18:29N 39°34' E 002°38'0 0.0
2018-Jun-29 17:56N 39°34' E 002°38'0 0.0
2018-Jun-29 17:29N 39°34' E 002°38'0 0.0
2018-Jun-29 16:59N 39°34' E 002°38'0 0.0
2018-Jun-29 16:29N 39°34' E 002°38'0 0.0
2018-Jun-29 15:59N 39°34' E 002°38'0 0.0
2018-Jun-29 15:29N 39°34' E 002°38'0 0.0
2018-Jun-29 14:59N 39°34' E 002°38'0 0.0
2018-Jun-29 14:29N 39°34' E 002°38'0 0.0
2018-Jun-29 13:59N 39°34' E 002°38'0 0.0
2018-Jun-29 13:29N 39°34' E 002°38'0 0.0
2018-Jun-29 12:59N 39°34' E 002°38'0 0.0
2018-Jun-29 12:29N 39°34' E 002°38'0 0.0
2018-Jun-29 11:59N 39°34' E 002°38'0 0.0
2018-Jun-29 11:29N 39°34' E 002°38'0 0.0
2018-Jun-29 10:59N 39°34' E 002°38'0 0.0
2018-Jun-29 10:29N 39°34' E 002°38'0 0.0
2018-Jun-29 09:59N 39°34' E 002°38'0 0.0
2018-Jun-29 09:29N 39°34' E 002°38'0 0.0
2018-Jun-29 08:59N 39°34' E 002°38'0 0.0
2018-Jun-29 08:29N 39°34' E 002°38'0 0.0
2018-Jun-29 07:59N 39°34' E 002°38'0 0.0
2018-Jun-29 07:29N 39°34' E 002°38'0 0.0
2018-Jun-29 06:59N 39°34' E 002°38'0 0.0
2018-Jun-29 06:29N 39°34' E 002°38'0 0.0
2018-Jun-29 05:59N 39°34' E 002°38'0 0.0
2018-Jun-29 05:29N 39°34' E 002°38'0 0.0
2018-Jun-29 04:59N 39°34' E 002°38'0 0.0
2018-Jun-29 04:29N 39°34' E 002°38'0 0.0
2018-Jun-29 03:59N 39°34' E 002°38'0 0.0
2018-Jun-29 03:29N 39°34' E 002°38'0 0.0
2018-Jun-29 02:59N 39°34' E 002°38'0 0.0
2018-Jun-29 02:29N 39°34' E 002°38'0 0.0
2018-Jun-29 01:59N 39°34' E 002°38'0 0.0
2018-Jun-29 01:29N 39°34' E 002°38'0 0.0
2018-Jun-29 00:59N 39°34' E 002°38'0 0.0
2018-Jun-29 00:29N 39°34' E 002°38'0 0.0
2018-Jun-28 23:59N 39°34' E 002°38'0 0.0
2018-Jun-28 23:29N 39°34' E 002°38'0 0.0
2018-Jun-28 22:59N 39°34' E 002°38'0 0.0
2018-Jun-28 22:29N 39°34' E 002°38'0 0.0
2018-Jun-28 21:59N 39°34' E 002°38'0 0.0
2018-Jun-28 21:29N 39°34' E 002°38'0 0.0
2018-Jun-28 20:59N 39°34' E 002°38'0 0.0
2018-Jun-28 20:26N 39°34' E 002°38'0 0.0
2018-Jun-28 19:59N 39°34' E 002°38'0 0.0
2018-Jun-28 19:29N 39°34' E 002°38'0 0.0
2018-Jun-28 18:59N 39°34' E 002°38'0 0.0
2018-Jun-28 18:29N 39°34' E 002°38'0 0.0
2018-Jun-28 17:59N 39°34' E 002°38'0 0.0
2018-Jun-28 17:29N 39°34' E 002°38'0 0.0
2018-Jun-28 16:59N 39°34' E 002°38'0 0.0
2018-Jun-28 16:29N 39°34' E 002°38'0 0.0
2018-Jun-28 15:59N 39°34' E 002°38'0 0.0
2018-Jun-28 15:29N 39°34' E 002°38'0 0.0
2018-Jun-28 14:59N 39°34' E 002°38'0 0.0
2018-Jun-28 14:29N 39°34' E 002°38'0 0.0
2018-Jun-28 13:56N 39°34' E 002°38'0 0.0
2018-Jun-28 13:29N 39°34' E 002°38'0 0.0
2018-Jun-28 12:59N 39°34' E 002°38'0 0.0
2018-Jun-28 11:47N 39°34' E 002°38'0 0.0
2018-Jun-28 11:29N 39°34' E 002°38'0 0.0
2018-Jun-28 10:59N 39°34' E 002°38'0 0.0
2018-Jun-28 10:29N 39°34' E 002°38'0 0.0
2018-Jun-28 09:59N 39°34' E 002°38'0 0.0
2018-Jun-28 09:29N 39°34' E 002°38'0 0.0
2018-Jun-28 08:59N 39°34' E 002°38'0 0.0
2018-Jun-28 08:29N 39°34' E 002°38'0 0.0
2018-Jun-28 07:59N 39°34' E 002°38'0 0.0
2018-Jun-28 07:29N 39°34' E 002°38'0 0.0
2018-Jun-28 06:59N 39°34' E 002°38'0 0.0
2018-Jun-28 06:29N 39°34' E 002°38'0 0.0
2018-Jun-28 05:59N 39°34' E 002°38'0 0.0
2018-Jun-28 05:29N 39°34' E 002°38'0 0.0
2018-Jun-28 04:59N 39°34' E 002°38'0 0.0
2018-Jun-28 04:29N 39°34' E 002°38'0 0.0
2018-Jun-28 03:59N 39°34' E 002°38'0 0.0
2018-Jun-28 03:29N 39°34' E 002°38'0 0.0
2018-Jun-28 02:59N 39°34' E 002°38'0 0.0
2018-Jun-28 02:29N 39°34' E 002°38'0 0.0
2018-Jun-28 01:59N 39°34' E 002°38'0 0.0
2018-Jun-28 01:29N 39°34' E 002°38'0 0.0
2018-Jun-28 00:59N 39°34' E 002°38'0 0.0
2018-Jun-28 00:29N 39°34' E 002°38'0 0.0
2018-Jun-27 23:59N 39°34' E 002°38'0 0.0
2018-Jun-27 23:29N 39°34' E 002°38'0 0.0
2018-Jun-27 22:59N 39°34' E 002°38'0 0.0
2018-Jun-27 22:29N 39°34' E 002°38'0 0.0
2018-Jun-27 21:59N 39°34' E 002°38'0 0.0
2018-Jun-27 21:29N 39°34' E 002°38'0 0.0
2018-Jun-27 20:59N 39°34' E 002°38'0 0.0
2018-Jun-27 20:29N 39°34' E 002°38'0 0.0
2018-Jun-27 19:59N 39°34' E 002°38'0 0.0
2018-Jun-27 19:29N 39°34' E 002°38'0 0.0
2018-Jun-27 18:59N 39°34' E 002°38'0 0.0
2018-Jun-27 18:29N 39°34' E 002°38'0 0.0
2018-Jun-27 17:56N 39°34' E 002°38'0 0.0
2018-Jun-27 17:29N 39°34' E 002°38'0 0.0
2018-Jun-27 16:59N 39°34' E 002°38'0 0.0
2018-Jun-27 16:29N 39°34' E 002°38'0 0.0
2018-Jun-27 15:59N 39°34' E 002°38'0 0.0
2018-Jun-27 15:29N 39°34' E 002°38'0 0.0
2018-Jun-27 14:59N 39°34' E 002°38'0 0.0
2018-Jun-27 14:29N 39°34' E 002°38'0 0.0
2018-Jun-27 13:59N 39°34' E 002°38'0 0.0
2018-Jun-27 13:29N 39°34' E 002°38'0 0.0
2018-Jun-27 12:59N 39°34' E 002°38'0 0.0
2018-Jun-27 12:29N 39°34' E 002°38'0 0.0
2018-Jun-27 11:59N 39°34' E 002°38'0 0.0
2018-Jun-27 11:29N 39°34' E 002°38'0 0.0
2018-Jun-27 10:59N 39°34' E 002°38'0 0.0
2018-Jun-27 10:17N 39°34' E 002°38'0 0.0
2018-Jun-27 09:59N 39°34' E 002°38'0 0.0
2018-Jun-27 09:29N 39°34' E 002°38'0 0.0
2018-Jun-27 08:59N 39°34' E 002°38'0 0.0
2018-Jun-27 08:29N 39°34' E 002°38'0 0.0
2018-Jun-27 07:59N 39°34' E 002°38'0 0.0
2018-Jun-27 07:29N 39°34' E 002°38'0 0.0
2018-Jun-27 06:56N 39°34' E 002°38'0 0.0
2018-Jun-27 06:29N 39°34' E 002°38'0 0.0
2018-Jun-27 05:59N 39°34' E 002°38'0 0.0
2018-Jun-27 05:29N 39°34' E 002°38'0 0.0
2018-Jun-27 04:59N 39°34' E 002°38'0 0.0
2018-Jun-27 04:29N 39°34' E 002°38'0 0.0
2018-Jun-27 03:59N 39°34' E 002°38'0 0.0
2018-Jun-27 03:29N 39°34' E 002°38'0 0.0
2018-Jun-27 02:59N 39°34' E 002°38'0 0.0
2018-Jun-27 02:29N 39°34' E 002°38'0 0.0
2018-Jun-27 01:59N 39°34' E 002°38'0 0.0
2018-Jun-27 01:29N 39°34' E 002°38'0 0.0
2018-Jun-27 00:59N 39°34' E 002°38'0 0.0
2018-Jun-27 00:29N 39°34' E 002°38'0 0.0
2018-Jun-26 23:59N 39°34' E 002°38'0 0.0
2018-Jun-26 23:29N 39°34' E 002°38'0 0.0
2018-Jun-26 22:59N 39°34' E 002°38'0 0.0
2018-Jun-26 22:29N 39°34' E 002°38'0 0.0
2018-Jun-26 21:59N 39°34' E 002°38'0 0.0
2018-Jun-26 21:26N 39°34' E 002°38'0 0.0
2018-Jun-26 20:59N 39°34' E 002°38'0 0.0
2018-Jun-26 20:29N 39°34' E 002°38'0 0.0
2018-Jun-26 19:59N 39°34' E 002°38'0 0.0
2018-Jun-26 19:29N 39°34' E 002°38'0 0.0
2018-Jun-26 18:59N 39°34' E 002°38'0 0.0
2018-Jun-26 18:29N 39°34' E 002°38'0 0.0
2018-Jun-26 17:59N 39°34' E 002°38'0 0.0
2018-Jun-26 17:29N 39°34' E 002°38'0 0.0
2018-Jun-26 16:29N 39°34' E 002°38'0 0.0
2018-Jun-26 15:59N 39°34' E 002°38'0 0.0
2018-Jun-26 15:26N 39°34' E 002°38'0 0.0
2018-Jun-26 14:59N 39°34' E 002°38'0 0.0
2018-Jun-26 14:29N 39°34' E 002°38'0 0.0
2018-Jun-26 13:53N 39°34' E 002°38'0 0.0
2018-Jun-26 13:29N 39°34' E 002°38'0 0.0
2018-Jun-26 12:59N 39°34' E 002°38'0 0.0
2018-Jun-26 12:29N 39°34' E 002°38'0 0.0
2018-Jun-26 11:59N 39°34' E 002°38'0 0.0
2018-Jun-26 11:29N 39°34' E 002°38'0 0.0
2018-Jun-26 10:59N 39°34' E 002°38'0 0.0
2018-Jun-26 10:29N 39°34' E 002°38'0 0.0
2018-Jun-26 09:59N 39°34' E 002°38'0 0.0
2018-Jun-26 09:29N 39°34' E 002°38'0 0.0
2018-Jun-26 08:59N 39°34' E 002°38'0 0.0
2018-Jun-26 08:29N 39°34' E 002°38'0 0.0
2018-Jun-26 07:59N 39°34' E 002°38'0 0.0
2018-Jun-26 07:23N 39°34' E 002°38'0 0.0
2018-Jun-26 06:57N 39°34' E 002°38'0 0.0
2018-Jun-26 06:29N 39°34' E 002°38'0 0.0
2018-Jun-26 05:59N 39°34' E 002°38'0 0.0
2018-Jun-26 05:29N 39°34' E 002°38'0 0.0
2018-Jun-26 04:59N 39°34' E 002°38'0 0.0
2018-Jun-26 04:29N 39°34' E 002°38'0 0.0
2018-Jun-26 03:59N 39°34' E 002°38'0 0.0
2018-Jun-26 03:29N 39°34' E 002°38'0 0.0
2018-Jun-26 02:59N 39°34' E 002°38'0 0.0
2018-Jun-26 02:29N 39°34' E 002°38'0 0.0
2018-Jun-26 01:59N 39°34' E 002°38'0 0.0
2018-Jun-26 01:29N 39°34' E 002°38'0 0.0
2018-Jun-26 00:59N 39°34' E 002°38'0 0.0
2018-Jun-26 00:29N 39°34' E 002°38'0 0.0
2018-Jun-25 23:59N 39°34' E 002°38'0 0.0
2018-Jun-25 23:29N 39°34' E 002°38'0 0.0
2018-Jun-25 22:59N 39°34' E 002°38'0 0.0
2018-Jun-25 22:29N 39°34' E 002°38'0 0.0
2018-Jun-25 22:00N 39°34' E 002°38'0 0.0
2018-Jun-25 21:29N 39°34' E 002°38'0 0.0
2018-Jun-25 20:59N 39°34' E 002°38'0 0.0
2018-Jun-25 20:29N 39°34' E 002°38'0 0.0
2018-Jun-25 19:59N 39°34' E 002°38'0 0.0
2018-Jun-25 19:29N 39°34' E 002°38'0 0.0
2018-Jun-25 18:59N 39°34' E 002°38'0 0.0
2018-Jun-25 18:26N 39°34' E 002°38'0 0.0
2018-Jun-25 17:59N 39°34' E 002°38'0 0.0
2018-Jun-25 17:29N 39°34' E 002°38'0 0.0
2018-Jun-25 16:59N 39°34' E 002°38'0 0.0
2018-Jun-25 16:29N 39°34' E 002°38'0 0.0
2018-Jun-25 15:59N 39°34' E 002°38'0 0.0
2018-Jun-25 15:30N 39°34' E 002°38'0 0.0
2018-Jun-25 15:00N 39°34' E 002°38'0 0.0
2018-Jun-25 14:30N 39°34' E 002°38'0 0.0
2018-Jun-25 14:00N 39°34' E 002°38'0 0.0
2018-Jun-25 13:30N 39°34' E 002°38'0 0.0
2018-Jun-25 13:00N 39°34' E 002°38'0 0.9
2018-Jun-25 12:29N 39°33' E 002°38'4 7.9
2018-Jun-25 11:59N 39°30' E 002°35'  

Dump ship's entire track history